createdAt,value
2023-02-11T00:01:25.933Z,90.01
2023-02-11T00:03:54.173Z,91.94
2023-02-11T00:06:22.592Z,91.85
2023-02-11T00:08:50.404Z,90.73
2023-02-11T00:11:22.188Z,89.22
2023-02-11T00:13:50.382Z,88.78
2023-02-11T00:16:20.140Z,89.48
2023-02-11T00:18:48.612Z,90.65
2023-02-11T00:21:18.718Z,90.70
2023-02-11T00:23:47.433Z,90.12
2023-02-11T00:26:16.284Z,89.84
2023-02-11T00:28:46.499Z,89.16
2023-02-11T00:31:14.961Z,89.42
2023-02-11T00:33:43.085Z,88.00
2023-02-11T00:36:14.837Z,87.27
2023-02-11T00:38:44.242Z,90.28
2023-02-11T00:41:13.047Z,88.74
2023-02-11T00:43:41.075Z,88.47
2023-02-11T00:46:10.714Z,88.47
2023-02-11T00:48:38.870Z,89.57
2023-02-11T00:51:08.249Z,89.60
2023-02-11T00:53:37.270Z,91.29
2023-02-11T00:56:06.117Z,91.03
2023-02-11T00:58:33.939Z,93.31
2023-02-11T01:01:01.904Z,91.24
2023-02-11T01:03:31.194Z,90.05
2023-02-11T01:05:59.144Z,90.93
2023-02-11T01:08:27.093Z,90.86
2023-02-11T01:10:56.423Z,90.86
2023-02-11T01:13:24.968Z,89.95
2023-02-11T01:15:53.070Z,88.84
2023-02-11T01:18:20.981Z,88.01
2023-02-11T01:20:50.200Z,85.99
2023-02-11T01:23:18.024Z,87.75
2023-02-11T01:25:46.493Z,88.08
2023-02-11T01:28:18.556Z,90.11
2023-02-11T01:30:46.528Z,89.01
2023-02-11T01:33:14.562Z,90.00
2023-02-11T01:35:44.340Z,87.75
2023-02-11T01:38:16.729Z,90.68
2023-02-11T01:40:48.566Z,91.30
2023-02-11T01:43:16.383Z,90.00
2023-02-11T01:46:13.756Z,89.77
2023-02-11T01:48:45.378Z,90.20
2023-02-11T01:51:17.990Z,89.49
2023-02-11T01:54:06.300Z,90.50
2023-02-11T01:56:53.840Z,87.62
2023-02-11T01:59:25.528Z,89.02
2023-02-11T02:01:59.974Z,88.45
2023-02-11T02:04:32.053Z,86.81
2023-02-11T02:07:04.715Z,85.70
2023-02-11T02:09:38.797Z,86.20
2023-02-11T02:12:06.991Z,87.44
2023-02-11T02:14:34.810Z,86.33
2023-02-11T02:17:02.643Z,88.39
2023-02-11T02:20:03.045Z,89.50
2023-02-11T02:23:10.456Z,91.04
2023-02-11T02:26:05.715Z,90.83
2023-02-11T02:28:59.415Z,91.57
2023-02-11T02:31:58.485Z,89.89
2023-02-11T02:34:36.124Z,92.28
2023-02-11T02:37:09.310Z,92.01
2023-02-11T02:39:38.387Z,92.61
2023-02-11T02:42:06.914Z,89.83
2023-02-11T02:44:35.092Z,92.26
2023-02-11T02:47:02.860Z,93.01
2023-02-11T02:49:31.972Z,92.14
2023-02-11T02:52:28.207Z,91.01
2023-02-11T02:55:13.234Z,93.55
2023-02-11T02:57:57.511Z,93.65
2023-02-11T03:00:31.246Z,94.05
2023-02-11T03:03:17.061Z,94.31
2023-02-11T03:05:54.025Z,93.10
2023-02-11T03:08:30.017Z,92.80
2023-02-11T03:10:59.108Z,92.31
2023-02-11T03:13:33.388Z,91.53
2023-02-11T03:16:05.744Z,91.42
2023-02-11T03:18:36.317Z,92.37
2023-02-11T03:21:09.249Z,91.92
2023-02-11T03:23:40.554Z,92.50
2023-02-11T03:26:17.474Z,92.17
2023-02-11T03:28:50.666Z,93.85
2023-02-11T03:31:23.283Z,94.01
2023-02-11T03:33:58.378Z,94.32
2023-02-11T03:36:33.679Z,93.91
2023-02-11T03:39:04.809Z,94.09
2023-02-11T03:41:34.674Z,91.61
2023-02-11T03:44:03.775Z,92.25
2023-02-11T03:46:34.483Z,92.66
2023-02-11T03:49:05.203Z,93.22
2023-02-11T03:51:36.141Z,92.09
2023-02-11T03:54:11.392Z,93.64
2023-02-11T03:56:48.204Z,93.77
2023-02-11T03:59:15.951Z,93.81
2023-02-11T04:01:43.753Z,94.56
2023-02-11T04:04:11.936Z,94.47
2023-02-11T04:06:41.413Z,94.33
2023-02-11T04:09:09.164Z,92.96
2023-02-11T04:11:37.062Z,91.92
2023-02-11T04:14:04.889Z,93.38
2023-02-11T04:16:32.721Z,94.69
2023-02-11T04:19:01.631Z,94.10
2023-02-11T04:21:29.482Z,93.36
2023-02-11T04:23:58.629Z,92.00
2023-02-11T04:26:26.408Z,91.50
2023-02-11T04:28:54.148Z,93.06
2023-02-11T04:31:21.983Z,93.54
2023-02-11T04:33:49.822Z,92.18
2023-02-11T04:36:17.646Z,92.26
2023-02-11T04:38:45.436Z,92.77
2023-02-11T04:41:14.630Z,91.53
2023-02-11T04:43:42.411Z,91.50
2023-02-11T04:46:10.292Z,89.68
2023-02-11T04:48:38.222Z,91.21
2023-02-11T04:51:06.165Z,87.65
2023-02-11T04:53:33.887Z,90.42
2023-02-11T04:56:01.682Z,89.83
2023-02-11T04:58:30.824Z,90.19
2023-02-11T05:01:06.900Z,89.84
2023-02-11T05:03:34.950Z,91.21
2023-02-11T05:06:02.752Z,94.15
2023-02-11T05:08:30.552Z,93.96
2023-02-11T05:10:58.739Z,92.46
2023-02-11T05:13:26.681Z,91.76
2023-02-11T05:15:56.215Z,91.09
2023-02-11T05:18:24.245Z,91.42
2023-02-11T05:20:51.969Z,91.24
2023-02-11T05:23:19.741Z,91.59
2023-02-11T05:25:47.457Z,90.25
2023-02-11T05:28:15.345Z,91.80
2023-02-11T05:30:43.167Z,94.15
2023-02-11T05:33:12.348Z,92.36
2023-02-11T05:35:40.053Z,90.69
2023-02-11T05:38:07.872Z,91.60
2023-02-11T05:40:35.620Z,93.23
2023-02-11T05:43:03.583Z,92.20
2023-02-11T05:45:31.327Z,93.04
2023-02-11T05:47:59.186Z,94.46
2023-02-11T05:50:28.351Z,92.31
2023-02-11T05:52:56.380Z,91.69
2023-02-11T05:55:24.312Z,91.29
2023-02-11T05:57:52.107Z,91.85
2023-02-11T06:00:20.216Z,92.11
2023-02-11T06:02:48.104Z,91.53
2023-02-11T06:05:15.850Z,93.10
2023-02-11T06:07:45.010Z,92.91
2023-02-11T06:10:13.592Z,93.26
2023-02-11T06:12:41.507Z,94.12
2023-02-11T06:15:09.549Z,93.70
2023-02-11T06:17:37.515Z,95.23
2023-02-11T06:20:07.550Z,94.20
2023-02-11T06:22:35.655Z,94.41
2023-02-11T06:25:05.242Z,94.71
2023-02-11T06:27:33.097Z,92.58
2023-02-11T06:30:00.854Z,93.73
2023-02-11T06:32:43.315Z,93.28
2023-02-11T06:35:12.691Z,92.71
2023-02-11T06:37:40.993Z,92.70
2023-02-11T06:40:11.014Z,92.16
2023-02-11T06:42:39.523Z,95.04
2023-02-11T06:45:09.444Z,95.50
2023-02-11T06:47:37.627Z,95.99
2023-02-11T06:50:06.046Z,94.76
2023-02-11T06:52:33.920Z,94.10
2023-02-11T06:55:02.555Z,93.63
2023-02-11T06:57:33.284Z,93.13
2023-02-11T07:00:01.048Z,92.22
2023-02-11T07:02:28.927Z,93.40
2023-02-11T07:04:56.688Z,94.58
2023-02-11T07:07:24.526Z,94.63
2023-02-11T07:09:52.291Z,93.98
2023-02-11T07:12:20.298Z,96.09
2023-02-11T07:14:49.357Z,94.51
2023-02-11T07:17:17.250Z,92.68
2023-02-11T07:19:45.063Z,93.27
2023-02-11T07:22:12.939Z,94.00
2023-02-11T07:24:40.708Z,93.51
2023-02-11T07:27:08.482Z,92.96
2023-02-11T07:29:36.267Z,94.53
2023-02-11T07:32:05.575Z,93.60
2023-02-11T07:34:33.411Z,93.55
2023-02-11T07:37:01.275Z,93.33
2023-02-11T07:39:29.462Z,95.19
2023-02-11T07:41:57.529Z,94.28
2023-02-11T07:44:25.387Z,92.71
2023-02-11T07:46:53.344Z,91.72
2023-02-11T07:49:22.475Z,92.37
2023-02-11T07:51:51.273Z,93.47
2023-02-11T07:54:19.301Z,92.10
2023-02-11T07:56:47.153Z,90.90
2023-02-11T07:59:15.017Z,91.45
2023-02-11T08:01:42.817Z,90.70
2023-02-11T08:04:10.670Z,92.09
2023-02-11T08:06:42.792Z,91.70
2023-02-11T08:09:14.915Z,90.73
2023-02-11T08:11:42.800Z,89.26
2023-02-11T08:14:11.116Z,89.75
2023-02-11T08:16:39.859Z,90.61
2023-02-11T08:19:11.332Z,88.42
2023-02-11T08:21:41.078Z,90.24
2023-02-11T08:24:09.587Z,89.30
2023-02-11T08:26:37.857Z,91.62
2023-02-11T08:29:10.277Z,91.27
2023-02-11T08:31:40.144Z,92.43
2023-02-11T08:34:08.312Z,92.04
2023-02-11T08:36:38.190Z,91.96
2023-02-11T08:39:19.372Z,93.06
2023-02-11T08:41:49.467Z,92.99
2023-02-11T08:44:17.291Z,94.58
2023-02-11T08:46:45.108Z,96.23
2023-02-11T08:49:12.849Z,94.13
2023-02-11T08:51:41.121Z,92.72
2023-02-11T08:54:10.458Z,95.51
2023-02-11T08:56:38.955Z,95.13
2023-02-11T08:59:07.274Z,95.04
2023-02-11T09:01:35.638Z,93.86
2023-02-11T09:04:03.512Z,94.35
2023-02-11T09:06:31.515Z,94.64
2023-02-11T09:09:00.011Z,94.10
2023-02-11T09:11:32.206Z,92.38
2023-02-11T09:14:00.144Z,93.75
2023-02-11T09:16:29.851Z,94.38
2023-02-11T09:18:58.655Z,93.51
2023-02-11T09:21:27.277Z,92.59
2023-02-11T09:23:55.338Z,94.36
2023-02-11T09:26:25.254Z,93.90
2023-02-11T09:28:54.664Z,95.75
2023-02-11T09:31:24.794Z,94.18
2023-02-11T09:33:56.344Z,95.33
2023-02-11T09:36:25.974Z,93.35
2023-02-11T09:38:53.936Z,95.57
2023-02-11T09:41:34.747Z,94.47
2023-02-11T09:44:07.267Z,96.57
2023-02-11T09:46:39.002Z,96.32
2023-02-11T09:49:08.570Z,95.41
2023-02-11T09:51:43.235Z,93.44
2023-02-11T09:54:17.992Z,95.28
2023-02-11T09:56:45.823Z,92.82
2023-02-11T09:59:17.494Z,93.85
2023-02-11T10:01:51.336Z,94.06
2023-02-11T10:04:34.500Z,94.03
2023-02-11T10:07:11.499Z,92.60
2023-02-11T10:09:52.520Z,94.08
2023-02-11T10:12:36.120Z,94.99
2023-02-11T10:15:16.097Z,93.16
2023-02-11T10:17:57.968Z,95.04
2023-02-11T10:20:34.664Z,92.68
2023-02-11T10:23:10.295Z,90.86
2023-02-11T10:25:40.378Z,89.86
2023-02-11T10:28:15.430Z,88.70
2023-02-11T10:30:53.913Z,88.86
2023-02-11T10:33:27.692Z,87.82
2023-02-11T10:35:55.369Z,86.03
2023-02-11T10:38:23.153Z,87.20
2023-02-11T10:40:51.214Z,86.49
2023-02-11T10:43:24.728Z,88.13
2023-02-11T10:45:55.330Z,86.58
2023-02-11T10:48:41.507Z,88.77
2023-02-11T10:51:17.018Z,87.01
2023-02-11T10:53:45.610Z,89.03
2023-02-11T10:56:22.092Z,89.26
2023-02-11T10:58:57.477Z,88.89
2023-02-11T11:01:40.612Z,88.89
2023-02-11T11:04:28.493Z,91.98
2023-02-11T11:06:56.668Z,88.83
2023-02-11T11:09:30.366Z,87.72
2023-02-11T11:11:58.286Z,88.01
2023-02-11T11:14:29.037Z,87.07
2023-02-11T11:16:58.136Z,85.44
2023-02-11T11:19:26.807Z,84.81
2023-02-11T11:21:56.670Z,82.75
2023-02-11T11:24:32.305Z,82.11
2023-02-11T11:27:02.865Z,79.73
2023-02-11T11:29:35.927Z,80.98
2023-02-11T11:32:12.418Z,79.90
2023-02-11T11:34:42.865Z,81.61
2023-02-11T11:37:15.948Z,81.41
2023-02-11T11:39:57.381Z,79.51
2023-02-11T11:42:30.073Z,81.28
2023-02-11T11:45:00.163Z,81.18
2023-02-11T11:47:36.018Z,81.17
2023-02-11T11:50:26.716Z,78.78
2023-02-11T11:53:01.419Z,78.82
2023-02-11T11:55:36.008Z,78.77
2023-02-11T11:58:03.844Z,78.04
2023-02-11T12:00:37.675Z,77.22
2023-02-11T12:03:39.681Z,77.78
2023-02-11T12:06:19.295Z,77.35
2023-02-11T12:08:57.980Z,77.75
2023-02-11T12:11:34.546Z,75.62
2023-02-11T12:14:13.599Z,76.85
2023-02-11T12:16:54.402Z,76.93
2023-02-11T12:19:54.918Z,72.67
2023-02-11T12:22:36.021Z,73.12
2023-02-11T12:25:27.424Z,71.15
2023-02-11T12:28:08.462Z,72.87
2023-02-11T12:30:54.591Z,71.63
2023-02-11T12:33:41.784Z,74.52
2023-02-11T12:36:19.942Z,72.78
2023-02-11T12:39:01.348Z,72.08
2023-02-11T12:42:04.147Z,71.67
2023-02-11T12:44:43.228Z,71.64
2023-02-11T12:47:17.954Z,72.20
2023-02-11T12:49:57.897Z,68.74
2023-02-11T12:52:40.426Z,68.33
2023-02-11T12:55:15.323Z,68.67
2023-02-11T12:57:44.190Z,68.99
2023-02-11T13:00:18.462Z,65.00
2023-02-11T13:02:54.425Z,66.15
2023-02-11T13:05:30.544Z,68.20
2023-02-11T13:08:06.897Z,67.82
2023-02-11T13:10:37.633Z,67.75
2023-02-11T13:13:18.052Z,65.53
2023-02-11T13:15:49.763Z,65.80
2023-02-11T13:18:49.321Z,67.56
2023-02-11T13:21:27.676Z,66.36
2023-02-11T13:24:05.512Z,65.82
2023-02-11T13:26:40.585Z,65.00
2023-02-11T13:29:20.548Z,67.33
2023-02-11T13:31:55.358Z,67.07
2023-02-11T13:34:47.556Z,65.58
2023-02-11T13:37:23.292Z,65.27
2023-02-11T13:40:00.049Z,65.62
2023-02-11T13:42:28.472Z,65.14
2023-02-11T13:44:57.239Z,64.49
2023-02-11T13:47:32.251Z,64.03
2023-02-11T13:50:02.639Z,64.67
2023-02-11T13:52:32.814Z,64.06
2023-02-11T13:55:10.619Z,64.34
2023-02-11T13:57:40.685Z,66.63
2023-02-11T14:00:48.481Z,65.93
2023-02-11T14:03:46.187Z,67.43
2023-02-11T14:06:37.576Z,64.81
2023-02-11T14:09:39.561Z,64.59
2023-02-11T14:12:36.804Z,63.26
2023-02-11T14:15:28.476Z,66.54
2023-02-11T14:17:56.734Z,63.92
2023-02-11T14:20:41.974Z,64.42
2023-02-11T14:23:24.450Z,66.30
2023-02-11T14:26:05.841Z,64.50
2023-02-11T14:28:35.944Z,63.50
2023-02-11T14:31:11.463Z,64.47
2023-02-11T14:33:56.389Z,66.93
2023-02-11T14:36:47.956Z,63.95
2023-02-11T14:39:27.539Z,63.76
2023-02-11T14:41:56.232Z,66.12
2023-02-11T14:44:28.206Z,64.69
2023-02-11T14:46:56.640Z,65.67
2023-02-11T14:49:28.411Z,65.80
2023-02-11T14:52:01.377Z,66.09
2023-02-11T14:54:30.321Z,63.15
2023-02-11T14:57:11.241Z,64.21
2023-02-11T14:59:41.035Z,64.48
2023-02-11T15:02:23.558Z,63.48
2023-02-11T15:04:51.378Z,63.99
2023-02-11T15:07:19.556Z,62.82
2023-02-11T15:09:50.208Z,62.42
2023-02-11T15:12:23.656Z,63.43
2023-02-11T15:14:56.114Z,63.22
2023-02-11T15:17:27.355Z,64.81
2023-02-11T15:19:57.851Z,65.47
2023-02-11T15:22:28.204Z,65.69
2023-02-11T15:25:00.474Z,65.11
2023-02-11T15:27:28.438Z,65.20
2023-02-11T15:29:57.510Z,66.90
2023-02-11T15:32:27.017Z,67.19
2023-02-11T15:34:56.848Z,66.56
2023-02-11T15:37:26.500Z,66.63
2023-02-11T15:39:55.391Z,64.99
2023-02-11T15:42:26.484Z,66.49
2023-02-11T15:47:53.082Z,66.61
2023-02-11T15:50:22.899Z,64.86
2023-02-11T15:52:51.813Z,66.83
2023-02-11T15:55:20.823Z,66.73
2023-02-11T15:57:57.484Z,66.68
2023-02-11T16:00:30.270Z,68.81
2023-02-11T16:02:59.543Z,67.79
2023-02-11T16:05:31.446Z,68.57
2023-02-11T16:08:00.416Z,68.97
2023-02-11T16:10:30.551Z,68.62
2023-02-11T16:13:18.193Z,67.62
2023-02-11T16:15:52.363Z,67.94
2023-02-11T16:18:38.636Z,68.55
2023-02-11T16:21:09.097Z,67.23
2023-02-11T16:23:39.313Z,68.08
2023-02-11T16:26:11.171Z,68.72
2023-02-11T16:28:39.112Z,69.62
2023-02-11T16:31:07.160Z,69.40
2023-02-11T16:33:36.380Z,69.21
2023-02-11T16:36:12.618Z,69.25
2023-02-11T16:38:40.399Z,71.02
2023-02-11T16:41:08.787Z,70.24
2023-02-11T16:43:36.674Z,70.12
2023-02-11T16:46:05.728Z,71.36
2023-02-11T16:48:34.690Z,71.34
2023-02-11T16:51:04.559Z,72.04
2023-02-11T16:53:32.315Z,71.74
2023-02-11T16:56:00.224Z,71.46
2023-02-11T16:58:27.992Z,69.76
2023-02-11T17:00:57.059Z,71.41
2023-02-11T17:03:30.072Z,71.15
2023-02-11T17:05:58.403Z,70.12
2023-02-11T17:08:27.620Z,70.89
2023-02-11T17:10:55.442Z,70.68
2023-02-11T17:13:23.245Z,70.12
2023-02-11T17:15:51.502Z,71.04
2023-02-11T17:18:19.383Z,70.26
2023-02-11T17:20:47.550Z,70.32
2023-02-11T17:23:15.452Z,72.44
2023-02-11T17:25:44.643Z,73.15
2023-02-11T17:28:13.043Z,72.57
2023-02-11T17:30:42.363Z,73.55
2023-02-11T17:33:10.341Z,73.55
2023-02-11T17:35:40.899Z,73.83
2023-02-11T17:38:08.687Z,73.84
2023-02-11T17:40:36.381Z,74.33
2023-02-11T17:43:05.615Z,74.21
2023-02-11T17:45:33.439Z,74.56
2023-02-11T17:48:01.393Z,74.13
2023-02-11T17:50:29.598Z,74.53
2023-02-11T17:52:58.177Z,75.50
2023-02-11T17:55:25.970Z,75.79
2023-02-11T17:57:53.759Z,75.11
2023-02-11T18:00:23.717Z,76.40
2023-02-11T18:02:51.552Z,75.51
2023-02-11T18:05:19.251Z,76.08
2023-02-11T18:07:48.024Z,75.65
2023-02-11T18:10:15.820Z,75.99
2023-02-11T18:12:43.684Z,76.88
2023-02-11T18:15:12.000Z,76.21
2023-02-11T18:17:41.056Z,77.50
2023-02-11T18:20:10.032Z,76.43
2023-02-11T18:22:40.135Z,77.73
2023-02-11T18:25:09.472Z,77.74
2023-02-11T18:27:37.214Z,79.60
2023-02-11T18:30:05.781Z,79.16
2023-02-11T18:32:33.527Z,79.48
2023-02-11T18:35:02.638Z,79.64
2023-02-11T18:37:30.369Z,79.60
2023-02-11T18:39:58.164Z,80.22
2023-02-11T18:42:25.985Z,80.89
2023-02-11T18:44:53.741Z,80.41
2023-02-11T18:47:21.449Z,81.39
2023-02-11T18:49:49.230Z,80.81
2023-02-11T18:52:18.353Z,79.13
2023-02-11T18:54:46.275Z,79.20
2023-02-11T18:57:13.982Z,79.52
2023-02-11T18:59:42.910Z,80.48
2023-02-11T19:02:10.829Z,81.68
2023-02-11T19:04:38.650Z,81.07
2023-02-11T19:07:06.474Z,81.18
2023-02-11T19:09:35.637Z,82.82
2023-02-11T19:12:04.646Z,81.88
2023-02-11T19:14:34.161Z,83.04
2023-02-11T19:17:04.533Z,83.54
2023-02-11T19:19:34.320Z,83.99
2023-02-11T19:22:03.764Z,83.32
2023-02-11T19:24:31.984Z,85.20
2023-02-11T19:27:03.054Z,83.96
2023-02-11T19:29:32.104Z,85.43
2023-02-11T19:31:59.957Z,85.90
2023-02-11T19:34:27.905Z,86.83
2023-02-11T19:36:56.709Z,86.23
2023-02-11T19:39:24.825Z,86.07
2023-02-11T19:41:52.642Z,87.52
2023-02-11T19:44:21.703Z,85.43
2023-02-11T19:46:50.263Z,92.14
2023-02-11T19:49:22.884Z,91.92
2023-02-11T19:51:50.767Z,91.17
2023-02-11T19:54:18.632Z,88.40
2023-02-11T19:56:49.424Z,91.57
2023-02-11T19:59:17.290Z,90.95
2023-02-11T20:01:47.801Z,90.60
2023-02-11T20:04:16.737Z,90.62
2023-02-11T20:06:44.683Z,91.26
2023-02-11T20:09:14.917Z,93.34
2023-02-11T20:11:43.055Z,92.33
2023-02-11T20:14:14.685Z,91.84
2023-02-11T20:16:49.010Z,92.11
2023-02-11T20:19:21.352Z,93.00
2023-02-11T20:21:52.135Z,91.76
2023-02-11T20:24:20.522Z,91.68
2023-02-11T20:26:49.122Z,91.80
2023-02-11T20:29:17.474Z,93.48
2023-02-11T20:31:45.897Z,92.35
2023-02-11T20:34:13.707Z,91.82
2023-02-11T20:36:42.797Z,92.11
2023-02-11T20:39:17.058Z,92.44
2023-02-11T20:41:46.029Z,92.47
2023-02-11T20:44:14.376Z,92.30
2023-02-11T20:46:45.903Z,91.65
2023-02-11T20:49:14.539Z,91.99
2023-02-11T20:51:44.222Z,92.41
2023-02-11T20:54:13.324Z,91.53
2023-02-11T20:56:41.509Z,91.80
2023-02-11T20:59:09.511Z,91.63
2023-02-11T21:01:40.617Z,91.66
2023-02-11T21:04:11.976Z,91.29
2023-02-11T21:06:42.354Z,90.68
2023-02-11T21:09:14.301Z,90.70
2023-02-11T21:11:42.561Z,92.85
2023-02-11T21:14:11.056Z,90.46
2023-02-11T21:16:39.103Z,90.20
2023-02-11T21:19:07.549Z,91.70
2023-02-11T21:21:37.185Z,92.16
2023-02-11T21:24:05.550Z,90.48
2023-02-11T21:26:35.454Z,91.17
2023-02-11T21:29:03.244Z,92.17
2023-02-11T21:31:33.150Z,92.60
2023-02-11T21:34:01.250Z,92.33
2023-02-11T21:36:30.347Z,94.08
2023-02-11T21:38:58.252Z,93.95
2023-02-11T21:41:27.382Z,91.19
2023-02-11T21:43:56.556Z,91.38
2023-02-11T21:46:24.585Z,94.24
2023-02-11T21:48:52.976Z,92.69
2023-02-11T21:51:22.905Z,91.83
2023-02-11T21:53:54.549Z,92.45
2023-02-11T21:56:22.989Z,92.08
2023-02-11T21:58:54.461Z,92.09
2023-02-11T22:01:25.886Z,92.00
2023-02-11T22:03:54.224Z,92.70
2023-02-11T22:06:26.205Z,92.36
2023-02-11T22:08:54.967Z,93.44
2023-02-11T22:11:22.834Z,92.71
2023-02-11T22:13:54.988Z,91.02
2023-02-11T22:16:24.882Z,90.94
2023-02-11T22:18:52.862Z,91.74
2023-02-11T22:21:23.498Z,93.29
2023-02-11T22:23:52.151Z,93.36
2023-02-11T22:26:22.302Z,93.11
2023-02-11T22:28:50.332Z,94.28
2023-02-11T22:31:19.961Z,93.59
2023-02-11T22:33:49.470Z,93.06
2023-02-11T22:36:20.175Z,93.57
2023-02-11T22:38:48.192Z,94.51
2023-02-11T22:41:16.779Z,95.45
2023-02-11T22:43:45.761Z,95.75
2023-02-11T22:46:16.199Z,95.47
2023-02-11T22:48:43.987Z,94.78
2023-02-11T22:51:14.766Z,93.53
2023-02-11T22:53:43.639Z,93.85
2023-02-11T22:56:15.326Z,94.93
2023-02-11T22:58:44.238Z,95.76
2023-02-11T23:01:12.604Z,98.04
2023-02-11T23:03:41.003Z,96.89
2023-02-11T23:06:09.182Z,97.19
2023-02-11T23:08:39.884Z,97.26
2023-02-11T23:11:09.768Z,97.39
2023-02-11T23:13:40.326Z,97.34
2023-02-11T23:16:10.147Z,97.17
2023-02-11T23:18:40.241Z,97.14
2023-02-11T23:21:12.492Z,96.21
2023-02-11T23:23:41.780Z,97.67
2023-02-11T23:26:11.981Z,96.75
2023-02-11T23:28:40.159Z,96.99
2023-02-11T23:31:16.444Z,96.43
2023-02-11T23:33:44.687Z,98.40
2023-02-11T23:36:13.045Z,96.89
2023-02-11T23:38:42.367Z,97.39
2023-02-11T23:41:10.918Z,97.89
2023-02-11T23:43:39.070Z,97.42
2023-02-11T23:46:07.974Z,98.22
2023-02-11T23:48:36.629Z,99.21
2023-02-11T23:51:05.078Z,99.41
2023-02-11T23:53:32.831Z,100.00
2023-02-11T23:56:01.955Z,100.00
2023-02-11T23:58:29.975Z,100.00
